sensor_id;sensor_type;location;lat;lon;timestamp;pressure;altitude;pressure_sealevel;temperature;humidity
46724;BME280;32463;48.298;11.620;2023-03-23T00:01:02;95853.44;;;7.32;100.00
46724;BME280;32463;48.298;11.620;2023-03-23T00:03:28;95860.03;;;7.34;100.00
46724;BME280;32463;48.298;11.620;2023-03-23T00:06:00;95854.53;;;7.29;100.00
46724;BME280;32463;48.298;11.620;2023-03-23T00:08:33;95849.53;;;7.28;100.00
46724;BME280;32463;48.298;11.620;2023-03-23T00:11:06;95852.56;;;7.23;100.00
46724;BME280;32463;48.298;11.620;2023-03-23T00:13:33;95857.72;;;7.23;100.00
46724;BME280;32463;48.298;11.620;2023-03-23T00:15:59;95854.47;;;7.21;100.00
46724;BME280;32463;48.298;11.620;2023-03-23T00:18:26;95858.00;;;7.20;100.00
46724;BME280;32463;48.298;11.620;2023-03-23T00:20:55;95862.06;;;7.23;100.00
46724;BME280;32463;48.298;11.620;2023-03-23T00:23:24;95853.00;;;7.19;100.00
46724;BME280;32463;48.298;11.620;2023-03-23T00:25:53;95856.09;;;7.22;100.00
46724;BME280;32463;48.298;11.620;2023-03-23T00:28:22;95855.50;;;7.28;100.00
46724;BME280;32463;48.298;11.620;2023-03-23T00:31:03;95849.97;;;7.23;100.00
46724;BME280;32463;48.298;11.620;2023-03-23T00:33:33;95852.25;;;7.26;100.00
46724;BME280;32463;48.298;11.620;2023-03-23T00:36:04;95847.91;;;7.27;100.00
46724;BME280;32463;48.298;11.620;2023-03-23T00:38:31;95854.69;;;7.28;100.00
46724;BME280;32463;48.298;11.620;2023-03-23T00:40:59;95850.63;;;7.25;100.00
46724;BME280;32463;48.298;11.620;2023-03-23T00:43:29;95852.91;;;7.28;100.00
46724;BME280;32463;48.298;11.620;2023-03-23T00:45:57;95860.66;;;7.28;100.00
46724;BME280;32463;48.298;11.620;2023-03-23T00:48:28;95862.28;;;7.29;100.00
46724;BME280;32463;48.298;11.620;2023-03-23T00:50:55;95854.25;;;7.32;100.00
46724;BME280;32463;48.298;11.620;2023-03-23T00:53:22;95858.44;;;7.33;100.00
46724;BME280;32463;48.298;11.620;2023-03-23T00:55:49;95853.28;;;7.33;100.00
46724;BME280;32463;48.298;11.620;2023-03-23T00:58:15;95863.13;;;7.38;100.00
46724;BME280;32463;48.298;11.620;2023-03-23T01:00:42;95857.81;;;7.39;100.00
46724;BME280;32463;48.298;11.620;2023-03-23T01:03:09;95858.31;;;7.43;100.00
46724;BME280;32463;48.298;11.620;2023-03-23T01:05:38;95848.53;;;7.47;100.00
46724;BME280;32463;48.298;11.620;2023-03-23T01:08:06;95845.59;;;7.41;100.00
46724;BME280;32463;48.298;11.620;2023-03-23T01:10:33;95846.91;;;7.46;100.00
46724;BME280;32463;48.298;11.620;2023-03-23T01:13:04;95843.44;;;7.55;100.00
46724;BME280;32463;48.298;11.620;2023-03-23T01:15:31;95843.78;;;7.60;100.00
46724;BME280;32463;48.298;11.620;2023-03-23T01:17:57;95839.47;;;7.68;100.00
46724;BME280;32463;48.298;11.620;2023-03-23T01:20:25;95853.88;;;7.79;100.00
46724;BME280;32463;48.298;11.620;2023-03-23T01:22:54;95850.34;;;7.80;100.00
46724;BME280;32463;48.298;11.620;2023-03-23T01:25:25;95852.91;;;7.80;100.00
46724;BME280;32463;48.298;11.620;2023-03-23T01:27:52;95847.72;;;7.72;100.00
46724;BME280;32463;48.298;11.620;2023-03-23T01:30:18;95849.94;;;7.67;100.00
46724;BME280;32463;48.298;11.620;2023-03-23T01:32:45;95848.66;;;7.71;100.00
46724;BME280;32463;48.298;11.620;2023-03-23T01:35:14;95841.22;;;7.68;100.00
46724;BME280;32463;48.298;11.620;2023-03-23T01:37:40;95840.94;;;7.71;100.00
46724;BME280;32463;48.298;11.620;2023-03-23T01:40:07;95832.03;;;7.65;100.00
46724;BME280;32463;48.298;11.620;2023-03-23T01:42:36;95825.75;;;7.68;100.00
46724;BME280;32463;48.298;11.620;2023-03-23T01:45:26;95828.69;;;7.73;100.00
46724;BME280;32463;48.298;11.620;2023-03-23T01:47:57;95835.09;;;7.69;100.00
46724;BME280;32463;48.298;11.620;2023-03-23T01:50:27;95834.97;;;7.70;100.00
46724;BME280;32463;48.298;11.620;2023-03-23T01:52:55;95834.19;;;7.78;100.00
46724;BME280;32463;48.298;11.620;2023-03-23T01:55:25;95820.72;;;7.92;100.00
46724;BME280;32463;48.298;11.620;2023-03-23T01:57:52;95831.72;;;8.02;100.00
46724;BME280;32463;48.298;11.620;2023-03-23T02:00:20;95829.16;;;8.02;100.00
46724;BME280;32463;48.298;11.620;2023-03-23T02:02:48;95828.84;;;8.05;100.00
46724;BME280;32463;48.298;11.620;2023-03-23T02:05:23;95817.84;;;8.03;100.00
46724;BME280;32463;48.298;11.620;2023-03-23T02:07:52;95819.44;;;7.96;100.00
46724;BME280;32463;48.298;11.620;2023-03-23T02:10:20;95813.97;;;7.91;100.00
46724;BME280;32463;48.298;11.620;2023-03-23T02:12:46;95810.53;;;7.83;100.00
46724;BME280;32463;48.298;11.620;2023-03-23T02:15:13;95812.50;;;7.89;100.00
46724;BME280;32463;48.298;11.620;2023-03-23T02:23:09;95814.91;;;7.90;100.00
46724;BME280;32463;48.298;11.620;2023-03-23T02:31:22;95807.09;;;7.74;100.00
46724;BME280;32463;48.298;11.620;2023-03-23T02:34:00;95805.91;;;7.68;100.00
46724;BME280;32463;48.298;11.620;2023-03-23T02:36:42;95810.56;;;7.65;100.00
46724;BME280;32463;48.298;11.620;2023-03-23T02:39:26;95816.38;;;7.59;100.00
46724;BME280;32463;48.298;11.620;2023-03-23T02:41:58;95819.91;;;7.58;100.00
46724;BME280;32463;48.298;11.620;2023-03-23T02:44:28;95812.13;;;7.50;100.00
46724;BME280;32463;48.298;11.620;2023-03-23T02:46:57;95814.34;;;7.44;100.00
46724;BME280;32463;48.298;11.620;2023-03-23T02:49:27;95814.34;;;7.44;100.00
46724;BME280;32463;48.298;11.620;2023-03-23T02:51:56;95817.28;;;7.50;100.00
46724;BME280;32463;48.298;11.620;2023-03-23T02:54:26;95816.72;;;7.64;100.00
46724;BME280;32463;48.298;11.620;2023-03-23T02:56:53;95809.28;;;7.61;100.00
46724;BME280;32463;48.298;11.620;2023-03-23T02:59:21;95816.38;;;7.67;100.00
46724;BME280;32463;48.298;11.620;2023-03-23T03:02:04;95815.13;;;7.71;100.00
46724;BME280;32463;48.298;11.620;2023-03-23T03:04:32;95811.22;;;7.67;100.00
46724;BME280;32463;48.298;11.620;2023-03-23T03:07:23;95812.84;;;7.60;100.00
46724;BME280;32463;48.298;11.620;2023-03-23T03:09:58;95805.75;;;7.62;100.00
46724;BME280;32463;48.298;11.620;2023-03-23T03:12:42;95805.91;;;7.60;100.00
46724;BME280;32463;48.298;11.620;2023-03-23T03:15:36;95791.41;;;7.67;100.00
46724;BME280;32463;48.298;11.620;2023-03-23T03:18:06;95799.66;;;7.71;100.00
46724;BME280;32463;48.298;11.620;2023-03-23T03:20:38;95794.19;;;7.74;100.00
46724;BME280;32463;48.298;11.620;2023-03-23T03:23:07;95779.00;;;7.71;100.00
46724;BME280;32463;48.298;11.620;2023-03-23T03:25:38;95779.81;;;7.71;100.00
46724;BME280;32463;48.298;11.620;2023-03-23T03:28:08;95779.31;;;7.68;100.00
46724;BME280;32463;48.298;11.620;2023-03-23T03:30:36;95787.72;;;7.70;100.00
46724;BME280;32463;48.298;11.620;2023-03-23T03:33:05;95791.91;;;7.71;100.00
46724;BME280;32463;48.298;11.620;2023-03-23T03:35:36;95801.25;;;7.72;100.00
46724;BME280;32463;48.298;11.620;2023-03-23T03:38:10;95809.97;;;7.71;100.00
46724;BME280;32463;48.298;11.620;2023-03-23T03:40:38;95811.88;;;7.69;100.00
46724;BME280;32463;48.298;11.620;2023-03-23T03:43:05;95807.03;;;7.66;100.00
46724;BME280;32463;48.298;11.620;2023-03-23T03:45:32;95804.94;;;7.61;100.00
46724;BME280;32463;48.298;11.620;2023-03-23T03:47:59;95805.75;;;7.62;100.00
46724;BME280;32463;48.298;11.620;2023-03-23T03:50:26;95813.63;;;7.60;100.00
46724;BME280;32463;48.298;11.620;2023-03-23T03:52:53;95809.59;;;7.58;100.00
46724;BME280;32463;48.298;11.620;2023-03-23T03:55:20;95821.56;;;7.67;100.00
46724;BME280;32463;48.298;11.620;2023-03-23T03:57:47;95813.22;;;7.73;100.00
46724;BME280;32463;48.298;11.620;2023-03-23T04:00:16;95814.22;;;7.80;100.00
46724;BME280;32463;48.298;11.620;2023-03-23T04:02:45;95823.63;;;7.89;100.00
46724;BME280;32463;48.298;11.620;2023-03-23T04:05:17;95820.38;;;7.87;100.00
46724;BME280;32463;48.298;11.620;2023-03-23T04:07:45;95824.59;;;7.96;100.00
46724;BME280;32463;48.298;11.620;2023-03-23T04:10:17;95838.16;;;7.98;100.00
46724;BME280;32463;48.298;11.620;2023-03-23T04:12:45;95840.44;;;8.01;100.00
46724;BME280;32463;48.298;11.620;2023-03-23T04:15:12;95836.22;;;8.00;100.00
46724;BME280;32463;48.298;11.620;2023-03-23T04:17:38;95843.97;;;8.00;100.00
46724;BME280;32463;48.298;11.620;2023-03-23T04:20:06;95839.78;;;7.99;100.00
46724;BME280;32463;48.298;11.620;2023-03-23T04:22:38;95845.75;;;8.00;100.00
46724;BME280;32463;48.298;11.620;2023-03-23T04:25:09;95829.31;;;8.01;100.00
46724;BME280;32463;48.298;11.620;2023-03-23T04:27:40;95825.91;;;8.00;100.00
46724;BME280;32463;48.298;11.620;2023-03-23T04:30:12;95833.31;;;7.95;100.00
46724;BME280;32463;48.298;11.620;2023-03-23T04:32:39;95830.91;;;7.94;100.00
46724;BME280;32463;48.298;11.620;2023-03-23T04:35:11;95818.47;;;7.89;100.00
46724;BME280;32463;48.298;11.620;2023-03-23T04:37:40;95828.47;;;7.92;100.00
46724;BME280;32463;48.298;11.620;2023-03-23T04:40:09;95841.22;;;7.94;100.00
46724;BME280;32463;48.298;11.620;2023-03-23T04:42:39;95841.69;;;7.97;100.00
46724;BME280;32463;48.298;11.620;2023-03-23T04:45:07;95834.63;;;7.99;100.00
46724;BME280;32463;48.298;11.620;2023-03-23T04:47:36;95838.47;;;7.95;100.00
46724;BME280;32463;48.298;11.620;2023-03-23T04:50:10;95843.97;;;8.00;100.00
46724;BME280;32463;48.298;11.620;2023-03-23T04:52:38;95833.66;;;8.00;100.00
46724;BME280;32463;48.298;11.620;2023-03-23T04:55:08;95833.66;;;8.00;100.00
46724;BME280;32463;48.298;11.620;2023-03-23T04:57:35;95832.69;;;8.01;100.00
46724;BME280;32463;48.298;11.620;2023-03-23T05:00:02;95844.47;;;8.04;100.00
46724;BME280;32463;48.298;11.620;2023-03-23T05:02:37;95837.25;;;8.07;100.00
46724;BME280;32463;48.298;11.620;2023-03-23T05:05:08;95824.19;;;8.09;100.00
46724;BME280;32463;48.298;11.620;2023-03-23T05:07:37;95834.09;;;8.22;100.00
46724;BME280;32463;48.298;11.620;2023-03-23T05:10:05;95836.34;;;8.25;100.00
46724;BME280;32463;48.298;11.620;2023-03-23T05:12:33;95825.03;;;8.26;100.00
46724;BME280;32463;48.298;11.620;2023-03-23T05:14:59;95836.00;;;8.28;100.00
46724;BME280;32463;48.298;11.620;2023-03-23T05:17:27;95836.97;;;8.27;100.00
46724;BME280;32463;48.298;11.620;2023-03-23T05:19:55;95840.22;;;8.29;100.00
46724;BME280;32463;48.298;11.620;2023-03-23T05:22:22;95843.75;;;8.28;100.00
46724;BME280;32463;48.298;11.620;2023-03-23T05:24:49;95849.59;;;8.30;100.00
46724;BME280;32463;48.298;11.620;2023-03-23T05:27:17;95850.53;;;8.29;100.00
46724;BME280;32463;48.298;11.620;2023-03-23T05:29:44;95848.78;;;8.29;100.00
46724;BME280;32463;48.298;11.620;2023-03-23T05:32:14;95847.81;;;8.30;100.00
46724;BME280;32463;48.298;11.620;2023-03-23T05:34:41;95855.13;;;8.35;100.00
46724;BME280;32463;48.298;11.620;2023-03-23T05:37:08;95860.28;;;8.35;100.00
46724;BME280;32463;48.298;11.620;2023-03-23T05:39:37;95863.88;;;8.42;100.00
46724;BME280;32463;48.298;11.620;2023-03-23T05:42:03;95865.69;;;8.50;100.00
46724;BME280;32463;48.298;11.620;2023-03-23T05:44:30;95870.69;;;8.59;100.00
46724;BME280;32463;48.298;11.620;2023-03-23T05:46:57;95857.47;;;8.62;100.00
46724;BME280;32463;48.298;11.620;2023-03-23T05:49:23;95823.56;;;8.73;100.00
46724;BME280;32463;48.298;11.620;2023-03-23T05:51:51;95812.28;;;8.83;100.00
46724;BME280;32463;48.298;11.620;2023-03-23T05:54:18;95798.41;;;8.84;100.00
46724;BME280;32463;48.298;11.620;2023-03-23T05:56:45;95782.72;;;8.85;100.00
46724;BME280;32463;48.298;11.620;2023-03-23T05:59:11;95782.53;;;8.87;100.00
46724;BME280;32463;48.298;11.620;2023-03-23T06:01:38;95789.00;;;8.91;100.00
46724;BME280;32463;48.298;11.620;2023-03-23T06:04:05;95775.44;;;8.97;100.00
46724;BME280;32463;48.298;11.620;2023-03-23T06:06:31;95768.31;;;8.99;100.00
46724;BME280;32463;48.298;11.620;2023-03-23T06:08:58;95761.88;;;9.03;100.00
46724;BME280;32463;48.298;11.620;2023-03-23T06:11:25;95776.09;;;9.15;100.00
46724;BME280;32463;48.298;11.620;2023-03-23T06:13:52;95774.44;;;9.30;100.00
46724;BME280;32463;48.298;11.620;2023-03-23T06:16:19;95772.81;;;9.37;100.00
46724;BME280;32463;48.298;11.620;2023-03-23T06:18:45;95782.47;;;9.52;100.00
46724;BME280;32463;48.298;11.620;2023-03-23T06:21:13;95779.22;;;9.66;100.00
46724;BME280;32463;48.298;11.620;2023-03-23T06:23:40;95782.06;;;9.79;100.00
46724;BME280;32463;48.298;11.620;2023-03-23T06:26:07;95789.47;;;9.98;100.00
46724;BME280;32463;48.298;11.620;2023-03-23T06:28:35;95792.34;;;10.03;100.00
46724;BME280;32463;48.298;11.620;2023-03-23T06:31:03;95788.09;;;10.10;100.00
46724;BME280;32463;48.298;11.620;2023-03-23T06:33:32;95799.72;;;10.14;100.00
46724;BME280;32463;48.298;11.620;2023-03-23T06:35:59;95792.94;;;10.13;100.00
46724;BME280;32463;48.298;11.620;2023-03-23T06:38:26;95805.09;;;10.21;100.00
46724;BME280;32463;48.298;11.620;2023-03-23T06:40:53;95812.50;;;10.32;100.00
46724;BME280;32463;48.298;11.620;2023-03-23T06:43:20;95804.56;;;10.34;100.00
46724;BME280;32463;48.298;11.620;2023-03-23T06:45:47;95804.88;;;10.31;100.00
46724;BME280;32463;48.298;11.620;2023-03-23T06:48:13;95798.66;;;10.40;100.00
46724;BME280;32463;48.298;11.620;2023-03-23T06:50:44;95803.50;;;10.43;100.00
46724;BME280;32463;48.298;11.620;2023-03-23T06:53:11;95804.38;;;10.66;100.00
46724;BME280;32463;48.298;11.620;2023-03-23T06:55:38;95803.31;;;10.75;100.00
46724;BME280;32463;48.298;11.620;2023-03-23T06:58:05;95791.56;;;10.88;99.67
46724;BME280;32463;48.298;11.620;2023-03-23T07:00:33;95793.31;;;10.95;98.45
46724;BME280;32463;48.298;11.620;2023-03-23T07:02:59;95792.63;;;11.16;98.58
46724;BME280;32463;48.298;11.620;2023-03-23T07:05:26;95782.03;;;11.40;94.34
46724;BME280;32463;48.298;11.620;2023-03-23T07:07:53;95789.03;;;11.55;92.52
46724;BME280;32463;48.298;11.620;2023-03-23T07:10:20;95796.25;;;11.82;89.52
46724;BME280;32463;48.298;11.620;2023-03-23T07:12:46;95787.19;;;11.93;88.79
46724;BME280;32463;48.298;11.620;2023-03-23T07:15:13;95802.31;;;12.19;86.08
46724;BME280;32463;48.298;11.620;2023-03-23T07:17:40;95796.69;;;12.51;84.10
46724;BME280;32463;48.298;11.620;2023-03-23T07:20:07;95793.63;;;12.84;80.58
46724;BME280;32463;48.298;11.620;2023-03-23T07:22:35;95792.88;;;13.11;79.04
46724;BME280;32463;48.298;11.620;2023-03-23T07:25:01;95790.69;;;13.36;78.21
46724;BME280;32463;48.298;11.620;2023-03-23T07:27:28;95788.69;;;13.66;73.72
46724;BME280;32463;48.298;11.620;2023-03-23T07:29:54;95791.16;;;13.74;72.08
46724;BME280;32463;48.298;11.620;2023-03-23T07:32:22;95785.44;;;13.92;70.84
46724;BME280;32463;48.298;11.620;2023-03-23T07:34:49;95781.88;;;13.99;70.25
46724;BME280;32463;48.298;11.620;2023-03-23T07:37:15;95789.31;;;14.09;68.55
46724;BME280;32463;48.298;11.620;2023-03-23T07:39:42;95794.88;;;14.34;66.93
46724;BME280;32463;48.298;11.620;2023-03-23T07:42:09;95797.09;;;14.37;66.27
46724;BME280;32463;48.298;11.620;2023-03-23T07:44:35;95801.00;;;14.61;66.01
46724;BME280;32463;48.298;11.620;2023-03-23T07:47:02;95795.41;;;14.77;63.49
46724;BME280;32463;48.298;11.620;2023-03-23T07:49:28;95797.38;;;14.68;62.12
46724;BME280;32463;48.298;11.620;2023-03-23T07:51:55;95808.25;;;14.78;62.17
46724;BME280;32463;48.298;11.620;2023-03-23T07:54:22;95804.81;;;14.71;60.63
46724;BME280;32463;48.298;11.620;2023-03-23T07:56:49;95803.38;;;14.49;60.21
46724;BME280;32463;48.298;11.620;2023-03-23T07:59:16;95798.53;;;14.46;60.70
46724;BME280;32463;48.298;11.620;2023-03-23T08:01:42;95800.69;;;14.36;60.45
46724;BME280;32463;48.298;11.620;2023-03-23T08:04:08;95796.53;;;14.48;59.78
46724;BME280;32463;48.298;11.620;2023-03-23T08:06:35;95794.75;;;14.55;60.60
46724;BME280;32463;48.298;11.620;2023-03-23T08:09:02;95800.97;;;14.54;59.22
46724;BME280;32463;48.298;11.620;2023-03-23T08:11:34;95795.53;;;14.49;59.47
46724;BME280;32463;48.298;11.620;2023-03-23T08:14:01;95793.03;;;14.82;59.19
46724;BME280;32463;48.298;11.620;2023-03-23T08:16:27;95793.22;;;14.80;60.06
46724;BME280;32463;48.298;11.620;2023-03-23T08:18:54;95795.25;;;14.92;58.42
46724;BME280;32463;48.298;11.620;2023-03-23T08:21:22;95797.06;;;15.11;58.09
46724;BME280;32463;48.298;11.620;2023-03-23T08:23:48;95802.28;;;15.11;57.82
46724;BME280;32463;48.298;11.620;2023-03-23T08:26:15;95815.16;;;15.12;57.77
46724;BME280;32463;48.298;11.620;2023-03-23T08:28:42;95807.91;;;14.95;57.78
46724;BME280;32463;48.298;11.620;2023-03-23T08:31:12;95807.91;;;15.08;58.66
46724;BME280;32463;48.298;11.620;2023-03-23T08:33:40;95811.13;;;15.30;57.62
46724;BME280;32463;48.298;11.620;2023-03-23T08:36:08;95812.56;;;15.39;57.65
46724;BME280;32463;48.298;11.620;2023-03-23T08:38:38;95808.13;;;15.66;56.77
46724;BME280;32463;48.298;11.620;2023-03-23T08:41:05;95803.91;;;15.78;57.03
46724;BME280;32463;48.298;11.620;2023-03-23T08:43:33;95811.13;;;15.89;55.12
46724;BME280;32463;48.298;11.620;2023-03-23T08:46:00;95811.56;;;15.86;54.57
46724;BME280;32463;48.298;11.620;2023-03-23T08:48:26;95815.91;;;16.05;54.27
46724;BME280;32463;48.298;11.620;2023-03-23T08:50:53;95819.94;;;16.01;54.24
46724;BME280;32463;48.298;11.620;2023-03-23T08:53:20;95812.69;;;16.03;54.12
46724;BME280;32463;48.298;11.620;2023-03-23T08:55:48;95819.31;;;16.12;53.44
46724;BME280;32463;48.298;11.620;2023-03-23T08:58:15;95834.59;;;16.15;53.34
46724;BME280;32463;48.298;11.620;2023-03-23T09:00:43;95825.28;;;16.33;52.66
46724;BME280;32463;48.298;11.620;2023-03-23T09:03:09;95826.19;;;16.65;51.99
46724;BME280;32463;48.298;11.620;2023-03-23T09:05:36;95829.38;;;16.73;51.09
46724;BME280;32463;48.298;11.620;2023-03-23T09:08:08;95827.63;;;16.99;51.03
46724;BME280;32463;48.298;11.620;2023-03-23T09:10:35;95833.66;;;17.56;49.86
46724;BME280;32463;48.298;11.620;2023-03-23T09:13:01;95841.28;;;18.07;48.34
46724;BME280;32463;48.298;11.620;2023-03-23T09:15:28;95843.69;;;17.90;47.78
46724;BME280;32463;48.298;11.620;2023-03-23T09:17:56;95838.03;;;17.93;47.27
46724;BME280;32463;48.298;11.620;2023-03-23T09:20:24;95844.00;;;18.00;46.87
46724;BME280;32463;48.298;11.620;2023-03-23T09:22:54;95853.13;;;17.73;47.09
46724;BME280;32463;48.298;11.620;2023-03-23T09:25:23;95842.50;;;17.86;46.66
46724;BME280;32463;48.298;11.620;2023-03-23T09:28:08;95835.00;;;17.71;46.25
46724;BME280;32463;48.298;11.620;2023-03-23T09:30:36;95843.84;;;18.13;45.52
46724;BME280;32463;48.298;11.620;2023-03-23T09:33:04;95854.50;;;18.18;45.17
46724;BME280;32463;48.298;11.620;2023-03-23T09:35:32;95848.41;;;18.25;44.96
46724;BME280;32463;48.298;11.620;2023-03-23T09:37:59;95843.41;;;17.98;44.88
46724;BME280;32463;48.298;11.620;2023-03-23T09:40:54;95843.53;;;17.85;44.93
46724;BME280;32463;48.298;11.620;2023-03-23T09:43:38;95843.06;;;17.95;45.62
46724;BME280;32463;48.298;11.620;2023-03-23T09:51:42;95838.31;;;17.54;45.90
46724;BME280;32463;48.298;11.620;2023-03-23T09:56:39;95830.47;;;18.03;44.51
46724;BME280;32463;48.298;11.620;2023-03-23T10:00:13;95833.22;;;18.08;45.01
46724;BME280;32463;48.298;11.620;2023-03-23T10:02:52;95835.06;;;17.83;45.76
46724;BME280;32463;48.298;11.620;2023-03-23T10:05:40;95843.06;;;18.13;45.54
46724;BME280;32463;48.298;11.620;2023-03-23T10:08:14;95848.97;;;17.65;46.35
46724;BME280;32463;48.298;11.620;2023-03-23T10:16:11;95845.47;;;17.96;45.88
46724;BME280;32463;48.298;11.620;2023-03-23T10:18:43;95846.09;;;17.42;46.95
46724;BME280;32463;48.298;11.620;2023-03-23T10:21:21;95842.78;;;17.78;46.83
46724;BME280;32463;48.298;11.620;2023-03-23T10:31:37;95850.00;;;17.58;47.44
46724;BME280;32463;48.298;11.620;2023-03-23T10:34:10;95847.78;;;17.55;47.66
46724;BME280;32463;48.298;11.620;2023-03-23T10:42:25;95862.19;;;17.14;47.89
46724;BME280;32463;48.298;11.620;2023-03-23T10:44:53;95853.41;;;17.33;47.09
46724;BME280;32463;48.298;11.620;2023-03-23T10:47:21;95857.69;;;17.21;47.50
46724;BME280;32463;48.298;11.620;2023-03-23T10:50:00;95847.56;;;17.31;47.65
46724;BME280;32463;48.298;11.620;2023-03-23T10:52:39;95843.38;;;17.80;47.33
46724;BME280;32463;48.298;11.620;2023-03-23T10:55:22;95840.59;;;17.43;46.88
46724;BME280;32463;48.298;11.620;2023-03-23T10:58:00;95844.53;;;17.66;47.28
46724;BME280;32463;48.298;11.620;2023-03-23T11:00:28;95842.69;;;17.91;46.56
46724;BME280;32463;48.298;11.620;2023-03-23T11:03:18;95840.75;;;17.80;46.94
46724;BME280;32463;48.298;11.620;2023-03-23T11:05:56;95844.38;;;17.79;47.40
46724;BME280;32463;48.298;11.620;2023-03-23T11:08:29;95843.31;;;17.62;47.41
46724;BME280;32463;48.298;11.620;2023-03-23T11:11:18;95842.28;;;17.63;47.45
46724;BME280;32463;48.298;11.620;2023-03-23T11:13:48;95856.19;;;17.70;47.50
46724;BME280;32463;48.298;11.620;2023-03-23T11:16:28;95850.66;;;17.78;47.57
46724;BME280;32463;48.298;11.620;2023-03-23T11:18:57;95855.69;;;17.79;47.74
46724;BME280;32463;48.298;11.620;2023-03-23T11:21:25;95846.31;;;18.08;47.18
46724;BME280;32463;48.298;11.620;2023-03-23T11:23:58;95851.66;;;18.20;46.97
46724;BME280;32463;48.298;11.620;2023-03-23T11:26:27;95844.59;;;18.57;46.62
46724;BME280;32463;48.298;11.620;2023-03-23T11:29:12;95845.63;;;18.20;46.94
46724;BME280;32463;48.298;11.620;2023-03-23T11:31:47;95843.44;;;18.53;46.31
46724;BME280;32463;48.298;11.620;2023-03-23T11:36:51;95836.44;;;18.65;46.06
46724;BME280;32463;48.298;11.620;2023-03-23T11:39:28;95838.63;;;18.68;45.61
46724;BME280;32463;48.298;11.620;2023-03-23T11:41:58;95839.94;;;18.23;46.90
46724;BME280;32463;48.298;11.620;2023-03-23T11:44:33;95837.22;;;18.47;46.40
46724;BME280;32463;48.298;11.620;2023-03-23T11:47:10;95834.09;;;18.39;46.48
46724;BME280;32463;48.298;11.620;2023-03-23T11:49:54;95831.53;;;18.50;46.90
46724;BME280;32463;48.298;11.620;2023-03-23T11:52:32;95833.56;;;19.15;45.64
46724;BME280;32463;48.298;11.620;2023-03-23T11:55:07;95825.72;;;19.38;43.76
46724;BME280;32463;48.298;11.620;2023-03-23T11:57:35;95818.06;;;19.37;43.32
46724;BME280;32463;48.298;11.620;2023-03-23T12:02:52;95828.09;;;20.16;41.44
46724;BME280;32463;48.298;11.620;2023-03-23T12:05:49;95819.38;;;19.93;42.06
46724;BME280;32463;48.298;11.620;2023-03-23T12:11:26;95811.63;;;20.61;40.09
46724;BME280;32463;48.298;11.620;2023-03-23T12:14:15;95805.56;;;20.61;39.50
46724;BME280;32463;48.298;11.620;2023-03-23T12:22:12;95808.44;;;20.88;39.43
46724;BME280;32463;48.298;11.620;2023-03-23T12:27:54;95814.94;;;19.70;41.61
46724;BME280;32463;48.298;11.620;2023-03-23T12:38:39;95811.16;;;19.54;42.37
46724;BME280;32463;48.298;11.620;2023-03-23T12:41:15;95811.22;;;19.47;42.44
46724;BME280;32463;48.298;11.620;2023-03-23T12:43:52;95814.69;;;19.60;41.68
46724;BME280;32463;48.298;11.620;2023-03-23T12:52:11;95806.03;;;19.29;43.26
46724;BME280;32463;48.298;11.620;2023-03-23T12:55:01;95810.03;;;19.20;43.74
46724;BME280;32463;48.298;11.620;2023-03-23T12:57:41;95804.78;;;19.20;43.85
46724;BME280;32463;48.298;11.620;2023-03-23T13:00:27;95804.25;;;19.41;43.01
46724;BME280;32463;48.298;11.620;2023-03-23T13:03:06;95808.66;;;19.29;43.46
46724;BME280;32463;48.298;11.620;2023-03-23T13:05:46;95799.53;;;19.20;44.39
46724;BME280;32463;48.298;11.620;2023-03-23T13:08:24;95797.25;;;19.35;44.48
46724;BME280;32463;48.298;11.620;2023-03-23T13:10:55;95788.69;;;19.40;43.58
46724;BME280;32463;48.298;11.620;2023-03-23T13:13:25;95794.59;;;19.54;43.21
46724;BME280;32463;48.298;11.620;2023-03-23T13:18:38;95792.91;;;19.29;43.62
46724;BME280;32463;48.298;11.620;2023-03-23T13:21:16;95791.97;;;19.12;44.01
46724;BME280;32463;48.298;11.620;2023-03-23T13:24:02;95784.41;;;19.04;43.36
46724;BME280;32463;48.298;11.620;2023-03-23T13:26:30;95796.53;;;18.75;44.40
46724;BME280;32463;48.298;11.620;2023-03-23T13:31:33;95794.91;;;18.74;43.82
46724;BME280;32463;48.298;11.620;2023-03-23T13:34:23;95792.97;;;18.51;43.84
46724;BME280;32463;48.298;11.620;2023-03-23T13:37:02;95799.81;;;18.52;43.92
46724;BME280;32463;48.298;11.620;2023-03-23T13:44:55;95785.84;;;18.40;43.83
46724;BME280;32463;48.298;11.620;2023-03-23T13:49:55;95784.81;;;18.41;43.92
46724;BME280;32463;48.298;11.620;2023-03-23T13:52:36;95777.75;;;18.41;44.54
46724;BME280;32463;48.298;11.620;2023-03-23T14:05:38;95774.50;;;18.28;45.12
46724;BME280;32463;48.298;11.620;2023-03-23T14:10:48;95781.03;;;18.18;46.02
46724;BME280;32463;48.298;11.620;2023-03-23T14:13:20;95780.31;;;18.30;45.63
46724;BME280;32463;48.298;11.620;2023-03-23T14:16:13;95772.59;;;18.16;45.69
46724;BME280;32463;48.298;11.620;2023-03-23T14:18:42;95773.69;;;17.91;46.33
46724;BME280;32463;48.298;11.620;2023-03-23T14:21:16;95766.91;;;18.20;45.94
46724;BME280;32463;48.298;11.620;2023-03-23T14:23:43;95775.38;;;18.03;46.11
46724;BME280;32463;48.298;11.620;2023-03-23T14:26:19;95775.59;;;18.02;45.86
46724;BME280;32463;48.298;11.620;2023-03-23T14:28:50;95781.66;;;18.02;46.81
46724;BME280;32463;48.298;11.620;2023-03-23T14:31:22;95772.88;;;17.90;48.15
46724;BME280;32463;48.298;11.620;2023-03-23T14:33:51;95774.34;;;18.04;48.18
46724;BME280;32463;48.298;11.620;2023-03-23T14:36:27;95770.41;;;18.13;48.61
46724;BME280;32463;48.298;11.620;2023-03-23T14:39:04;95763.34;;;18.14;48.56
46724;BME280;32463;48.298;11.620;2023-03-23T14:41:34;95768.34;;;17.79;48.56
46724;BME280;32463;48.298;11.620;2023-03-23T14:44:03;95769.09;;;17.68;49.06